Pottersville, NJ (07979)

12:10 PM EDT on July 27, 2016 (GMT -0400)
Parker Acres | | Change Station

Elev 910 ft 40.76 °N, 74.76 °W | Updated 10 minutes ago

Mostly Cloudy
Mostly Cloudy
82.4 °F
Feels Like 84 °F
N
2.0
Wind Variable Wind from SE
Gusts 7.0 mph

Today
High -- | Low -- °F
--% Chance of Precip.
Yesterday
High -- | Low -- °F
Precip. -- in
Pressure 29.94 in
Visibility 10.0 miles
Clouds Mostly Cloudy 6000 ft
Heat Index 84 °F
Dew Point 65 °F
Humidity 55%
Rainfall 0.00 in
Snow Depth Not available.
5:51 AM 8:18 PM
Last Quarter, 42% visible
METAR KSMQ 271553Z AUTO VRB03KT 10SM BKN060 31/17 A2994 RMK AO2 SLP137 T03110172
Pressure 29.94 in
Visibility 10.0 miles
Clouds Mostly Cloudy 6000 ft
Heat Index 84 °F
Dew Point 65 °F
Humidity 55%
Rainfall 0.00 in
Snow Depth Not available.
5:51 AM 8:18 PM
Last Quarter, 42% visible
METAR KSMQ 271553Z AUTO VRB03KT 10SM BKN060 31/17 A2994 RMK AO2 SLP137 T03110172

10-Day Weather Forecast

Almanac

Astronomy

Jul. 27, 2016 Rise Set
Actual Time
Civil Twilight
Nautical Twilight
Astronomical Twilight
Moon
Length of Visible Light
Length of Day
Tomorrow will be .
, % of the Moon is Illuminated

Today's Extremes

State Highs State Lows

Community

WunderPhotos

Upload Photos

1,927,877 photos uploaded!

WunderBlog® & News

Nearby

Air Quality

  Air Quality AQ Index Pollutant
Not available.

Snow Depth

Station Depth Elevation

Earthquake Activity

City Distance Mag. Time & Date
Minimum magnitude displayed is 2.5.

Coastal Water Temperatures

Place Temperature

Stations

Nearby Weather Stations

Station Location Temp. Windchill Dew Point Humidity Wind Precip. Elev Updated Type
                   

Watches & Warnings

There are currently no watches in effect.